createdAt,value
2019-04-03T00:00:38.787Z,10.57
2019-04-03T00:01:38.796Z,10.59
2019-04-03T00:02:38.816Z,10.56
2019-04-03T00:03:38.823Z,10.61
2019-04-03T00:04:38.835Z,10.72
2019-04-03T00:05:38.857Z,10.67
2019-04-03T00:06:38.876Z,10.69
2019-04-03T00:07:38.898Z,10.68
2019-04-03T00:08:38.896Z,10.67
2019-04-03T00:09:38.990Z,10.60
2019-04-03T00:10:38.914Z,10.71
2019-04-03T00:11:39.906Z,10.63
2019-04-03T00:12:41.066Z,10.71
2019-04-03T00:13:41.446Z,10.67
2019-04-03T00:14:38.973Z,10.67
2019-04-03T00:15:38.987Z,10.69
2019-04-03T00:16:39.012Z,10.69
2019-04-03T00:17:39.016Z,10.59
2019-04-03T00:18:39.043Z,10.59
2019-04-03T00:19:39.047Z,10.61
2019-04-03T00:20:39.068Z,10.44
2019-04-03T00:21:39.068Z,10.49
2019-04-03T00:22:39.088Z,10.41
2019-04-03T00:23:39.101Z,10.34
2019-04-03T00:24:39.177Z,10.20
2019-04-03T00:25:39.129Z,10.26
2019-04-03T00:26:39.151Z,10.28
2019-04-03T00:27:39.158Z,10.40
2019-04-03T00:28:39.188Z,10.31
2019-04-03T00:29:39.182Z,10.33
2019-04-03T00:30:39.202Z,10.35
2019-04-03T00:31:39.281Z,10.30
2019-04-03T00:32:39.216Z,10.34
2019-04-03T00:33:39.234Z,10.34
2019-04-03T00:34:39.255Z,10.37
2019-04-03T00:35:39.264Z,10.38
2019-04-03T00:36:39.276Z,10.44
2019-04-03T00:37:39.340Z,10.51
2019-04-03T00:38:39.296Z,10.53
2019-04-03T00:39:39.322Z,10.57
2019-04-03T00:40:39.332Z,10.54
2019-04-03T00:41:39.346Z,10.67
2019-04-03T00:42:39.377Z,10.67
2019-04-03T00:43:39.372Z,10.64
2019-04-03T00:44:39.392Z,10.57
2019-04-03T00:45:39.403Z,10.51
2019-04-03T00:46:39.477Z,10.57
2019-04-03T00:47:39.429Z,10.57
2019-04-03T00:48:39.439Z,10.59
2019-04-03T00:49:39.445Z,10.56
2019-04-03T00:50:39.485Z,10.53
2019-04-03T00:51:39.617Z,10.57
2019-04-03T00:52:39.495Z,10.56
2019-04-03T00:53:39.661Z,10.57
2019-04-03T00:54:39.683Z,10.57
2019-04-03T00:55:39.568Z,10.53
2019-04-03T00:56:39.553Z,10.44
2019-04-03T00:57:39.583Z,10.33
2019-04-03T00:58:39.580Z,10.38
2019-04-03T00:59:39.781Z,10.31
2019-04-03T01:00:39.613Z,10.31
2019-04-03T01:01:39.673Z,10.30
2019-04-03T01:02:39.638Z,10.33
2019-04-03T01:03:39.714Z,10.31
2019-04-03T01:04:39.686Z,10.28
2019-04-03T01:05:39.676Z,10.13
2019-04-03T01:06:39.684Z,10.13
2019-04-03T01:07:39.702Z,10.07
2019-04-03T01:08:39.717Z,10.09
2019-04-03T01:09:39.728Z,10.10
2019-04-03T01:10:39.743Z,10.13
2019-04-03T01:11:39.759Z,10.16
2019-04-03T01:12:39.772Z,10.20
2019-04-03T01:13:39.809Z,10.13
2019-04-03T01:14:39.800Z,10.13
2019-04-03T01:15:39.800Z,10.16
2019-04-03T01:16:39.817Z,10.15
2019-04-03T01:17:39.842Z,10.17
2019-04-03T01:18:39.846Z,10.10
2019-04-03T01:19:39.865Z,10.10
2019-04-03T01:20:39.875Z,9.97
2019-04-03T01:21:39.884Z,9.99
2019-04-03T01:22:39.902Z,10.02
2019-04-03T01:23:40.153Z,10.02
2019-04-03T01:24:39.930Z,9.99
2019-04-03T01:25:40.175Z,9.99
2019-04-03T01:26:40.658Z,10.09
2019-04-03T01:27:41.589Z,9.95
2019-04-03T01:28:41.825Z,9.99
2019-04-03T01:29:42.186Z,9.97
2019-04-03T01:30:40.010Z,9.99
2019-04-03T01:31:40.022Z,9.97
2019-04-03T01:32:40.035Z,9.98
2019-04-03T01:33:40.050Z,9.97
2019-04-03T01:34:40.062Z,9.97
2019-04-03T01:35:40.078Z,10.01
2019-04-03T01:36:40.238Z,10.04
2019-04-03T01:37:40.104Z,9.89
2019-04-03T01:38:40.112Z,9.91
2019-04-03T01:39:40.171Z,9.95
2019-04-03T01:40:40.138Z,9.91
2019-04-03T01:41:40.225Z,9.98
2019-04-03T01:42:40.176Z,9.99
2019-04-03T01:43:40.180Z,9.99
2019-04-03T01:44:40.196Z,9.99
2019-04-03T01:45:40.234Z,9.95
2019-04-03T01:46:40.227Z,10.04
2019-04-03T01:47:40.236Z,10.09
2019-04-03T01:48:40.257Z,10.13
2019-04-03T01:49:40.262Z,10.13
2019-04-03T01:50:40.270Z,10.15
2019-04-03T01:51:40.286Z,10.23
2019-04-03T01:52:40.298Z,10.30
2019-04-03T01:53:40.328Z,10.33
2019-04-03T01:54:40.326Z,10.33
2019-04-03T01:55:40.340Z,10.35
2019-04-03T01:56:40.358Z,10.38
2019-04-03T01:57:40.526Z,10.31
2019-04-03T01:58:40.388Z,10.33
2019-04-03T01:59:40.458Z,10.30
2019-04-03T02:00:40.409Z,10.30
2019-04-03T02:01:40.456Z,10.30
2019-04-03T02:02:40.470Z,10.26
2019-04-03T02:03:41.703Z,10.23
2019-04-03T02:04:41.994Z,10.20
2019-04-03T02:05:43.261Z,10.31
2019-04-03T02:06:41.806Z,10.17
2019-04-03T02:07:40.542Z,10.30
2019-04-03T02:08:40.524Z,10.20
2019-04-03T02:09:40.534Z,10.15
2019-04-03T02:10:40.717Z,10.12
2019-04-03T02:11:40.603Z,10.13
2019-04-03T02:12:40.569Z,10.09
2019-04-03T02:13:40.591Z,10.12
2019-04-03T02:14:40.595Z,10.10
2019-04-03T02:15:40.628Z,10.09
2019-04-03T02:16:40.619Z,9.99
2019-04-03T02:17:40.632Z,10.04
2019-04-03T02:18:40.653Z,9.95
2019-04-03T02:19:40.669Z,9.89
2019-04-03T02:20:40.788Z,9.95
2019-04-03T02:21:40.693Z,9.80
2019-04-03T02:22:40.835Z,9.80
2019-04-03T02:23:40.721Z,9.83
2019-04-03T02:24:41.040Z,9.89
2019-04-03T02:25:40.747Z,9.89
2019-04-03T02:26:40.758Z,9.95
2019-04-03T02:27:40.773Z,9.94
2019-04-03T02:28:40.884Z,9.91
2019-04-03T02:29:40.798Z,9.97
2019-04-03T02:30:45.104Z,9.94
2019-04-03T02:31:40.823Z,9.87
2019-04-03T02:32:40.842Z,9.94
2019-04-03T02:33:40.856Z,9.98
2019-04-03T02:34:40.867Z,9.99
2019-04-03T02:35:41.039Z,10.02
2019-04-03T02:36:43.452Z,10.01
2019-04-03T02:37:40.904Z,10.04
2019-04-03T02:38:41.059Z,10.10
2019-04-03T02:39:41.146Z,10.13
2019-04-03T02:40:40.945Z,10.05
2019-04-03T02:41:40.961Z,10.05
2019-04-03T02:42:42.067Z,9.99
2019-04-03T02:43:41.154Z,9.97
2019-04-03T02:44:42.040Z,9.92
2019-04-03T02:45:41.032Z,9.89
2019-04-03T02:46:41.031Z,9.92
2019-04-03T02:47:41.043Z,9.95
2019-04-03T02:48:41.365Z,10.01
2019-04-03T02:49:42.796Z,9.98
2019-04-03T02:50:42.197Z,9.98
2019-04-03T02:51:41.093Z,9.95
2019-04-03T02:52:41.114Z,9.94
2019-04-03T02:53:41.149Z,9.77
2019-04-03T02:54:41.495Z,9.80
2019-04-03T02:55:41.150Z,9.84
2019-04-03T02:56:44.650Z,9.83
2019-04-03T02:57:41.177Z,9.82
2019-04-03T02:58:41.354Z,9.87
2019-04-03T02:59:41.200Z,9.87
2019-04-03T03:00:41.264Z,9.94
2019-04-03T03:01:41.226Z,9.91
2019-04-03T03:02:44.103Z,9.87
2019-04-03T03:03:41.258Z,9.97
2019-04-03T03:04:41.269Z,9.98
2019-04-03T03:05:41.279Z,9.95
2019-04-03T03:06:41.298Z,10.01
2019-04-03T03:07:41.308Z,10.02
2019-04-03T03:08:42.546Z,9.97
2019-04-03T03:09:45.712Z,9.94
2019-04-03T03:10:41.350Z,9.95
2019-04-03T03:11:41.369Z,9.91
2019-04-03T03:12:41.377Z,9.86
2019-04-03T03:13:41.387Z,9.94
2019-04-03T03:14:41.402Z,9.83
2019-04-03T03:15:43.929Z,9.84
2019-04-03T03:16:41.428Z,9.76
2019-04-03T03:17:41.434Z,9.79
2019-04-03T03:18:41.448Z,9.79
2019-04-03T03:19:41.567Z,9.77
2019-04-03T03:20:41.704Z,9.69
2019-04-03T03:21:43.874Z,9.66
2019-04-03T03:22:41.503Z,9.65
2019-04-03T03:23:41.571Z,9.69
2019-04-03T03:24:41.760Z,9.62
2019-04-03T03:25:41.562Z,9.69
2019-04-03T03:26:41.574Z,9.68
2019-04-03T03:27:42.631Z,9.66
2019-04-03T03:28:45.390Z,9.65
2019-04-03T03:29:41.737Z,9.65
2019-04-03T03:30:53.455Z,9.76
2019-04-03T03:32:02.602Z,9.73
2019-04-03T03:32:42.042Z,9.64
2019-04-03T03:33:42.419Z,9.79
2019-04-03T03:34:55.038Z,9.73
2019-04-03T03:35:46.974Z,9.64
2019-04-03T03:36:41.932Z,9.66
2019-04-03T03:37:41.784Z,9.82
2019-04-03T03:38:41.825Z,9.68
2019-04-03T03:39:43.515Z,9.64
2019-04-03T03:40:41.736Z,9.69
2019-04-03T03:41:41.762Z,9.64
2019-04-03T03:42:41.759Z,9.73
2019-04-03T03:43:41.785Z,9.66
2019-04-03T03:44:45.218Z,9.66
2019-04-03T03:45:41.798Z,9.73
2019-04-03T03:46:41.816Z,9.73
2019-04-03T03:47:42.431Z,9.59
2019-04-03T03:48:43.653Z,9.59
2019-04-03T03:49:41.856Z,9.55
2019-04-03T03:50:41.865Z,9.47
2019-04-03T03:51:41.888Z,9.55
2019-04-03T03:52:41.916Z,9.55
2019-04-03T03:53:44.811Z,9.56
2019-04-03T03:54:41.914Z,9.46
2019-04-03T03:55:42.047Z,9.50
2019-04-03T03:56:41.945Z,9.48
2019-04-03T03:57:41.957Z,9.54
2019-04-03T03:58:44.574Z,9.50
2019-04-03T03:59:41.985Z,9.48
2019-04-03T04:00:42.039Z,9.48
2019-04-03T04:01:42.006Z,9.62
2019-04-03T04:02:44.544Z,9.51
2019-04-03T04:03:42.460Z,9.51
2019-04-03T04:04:42.048Z,9.46
2019-04-03T04:05:42.061Z,9.40
2019-04-03T04:06:42.073Z,9.59
2019-04-03T04:07:42.091Z,9.48
2019-04-03T04:08:44.276Z,9.55
2019-04-03T04:09:42.256Z,9.50
2019-04-03T04:10:42.178Z,9.55
2019-04-03T04:11:42.132Z,9.50
2019-04-03T04:12:42.637Z,9.56
2019-04-03T04:13:42.811Z,9.44
2019-04-03T04:14:42.194Z,9.54
2019-04-03T04:15:42.478Z,9.59
2019-04-03T04:16:42.211Z,9.61
2019-04-03T04:17:42.511Z,9.50
2019-04-03T04:18:42.221Z,9.43
2019-04-03T04:19:42.230Z,9.43
2019-04-03T04:20:42.278Z,9.40
2019-04-03T04:21:44.022Z,9.41
2019-04-03T04:22:42.272Z,9.39
2019-04-03T04:23:42.287Z,9.31
2019-04-03T04:24:42.297Z,9.23
2019-04-03T04:25:44.111Z,9.28
2019-04-03T04:26:42.324Z,9.29
2019-04-03T04:27:42.349Z,9.25
2019-04-03T04:28:42.348Z,9.23
2019-04-03T04:29:42.353Z,9.16
2019-04-03T04:30:43.160Z,9.14
2019-04-03T04:31:44.076Z,9.22
2019-04-03T04:32:42.400Z,9.26
2019-04-03T04:33:42.413Z,9.25
2019-04-03T04:34:42.649Z,9.19
2019-04-03T04:35:42.435Z,9.26
2019-04-03T04:36:42.450Z,9.28
2019-04-03T04:37:42.476Z,9.32
2019-04-03T04:38:42.478Z,9.26
2019-04-03T04:39:42.545Z,9.13
2019-04-03T04:40:42.606Z,9.14
2019-04-03T04:41:42.625Z,9.11
2019-04-03T04:42:42.531Z,9.06
2019-04-03T04:43:42.542Z,9.06
2019-04-03T04:44:42.575Z,8.95
2019-04-03T04:45:43.249Z,9.00
2019-04-03T04:46:44.576Z,8.91
2019-04-03T04:47:45.549Z,8.88
2019-04-03T04:48:42.605Z,8.92
2019-04-03T04:49:42.632Z,9.03
2019-04-03T04:50:42.627Z,8.95
2019-04-03T04:51:42.697Z,8.88
2019-04-03T04:52:42.655Z,8.81
2019-04-03T04:53:42.675Z,8.78
2019-04-03T04:54:43.044Z,8.73
2019-04-03T04:55:42.684Z,8.69
2019-04-03T04:56:42.832Z,8.76
2019-04-03T04:57:42.712Z,8.82
2019-04-03T04:58:43.684Z,8.84
2019-04-03T04:59:42.950Z,8.70
2019-04-03T05:00:42.753Z,8.79
2019-04-03T05:01:42.767Z,8.79
2019-04-03T05:02:42.779Z,8.74
2019-04-03T05:03:42.790Z,8.76
2019-04-03T05:04:42.796Z,8.70
2019-04-03T05:05:42.808Z,8.73
2019-04-03T05:06:42.973Z,8.73
2019-04-03T05:07:42.846Z,8.79
2019-04-03T05:08:42.851Z,8.73
2019-04-03T05:09:42.866Z,8.79
2019-04-03T05:10:42.886Z,8.79
2019-04-03T05:11:42.899Z,8.69
2019-04-03T05:12:45.321Z,8.78
2019-04-03T05:13:42.915Z,8.76
2019-04-03T05:14:42.925Z,8.79
2019-04-03T05:15:42.939Z,8.85
2019-04-03T05:16:42.950Z,8.94
2019-04-03T05:17:42.963Z,8.89
2019-04-03T05:18:42.971Z,8.97
2019-04-03T05:19:42.987Z,9.03
2019-04-03T05:20:43.177Z,9.14
2019-04-03T05:21:43.176Z,9.29
2019-04-03T05:22:43.015Z,9.25
2019-04-03T05:23:43.035Z,9.26
2019-04-03T05:24:43.044Z,9.23
2019-04-03T05:25:43.206Z,9.34
2019-04-03T05:26:43.091Z,9.37
2019-04-03T05:27:43.090Z,9.48
2019-04-03T05:28:54.289Z,9.44
2019-04-03T05:29:43.111Z,9.46
2019-04-03T05:30:43.141Z,9.48
2019-04-03T05:31:43.137Z,9.43
2019-04-03T05:32:43.223Z,9.47
2019-04-03T05:33:43.164Z,9.47
2019-04-03T05:34:44.077Z,9.50
2019-04-03T05:35:45.593Z,9.62
2019-04-03T05:36:43.206Z,9.59
2019-04-03T05:37:43.215Z,9.62
2019-04-03T05:38:43.226Z,9.58
2019-04-03T05:39:43.262Z,9.56
2019-04-03T05:40:43.498Z,9.56
2019-04-03T05:41:43.412Z,9.55
2019-04-03T05:42:43.280Z,9.50
2019-04-03T05:43:43.514Z,9.51
2019-04-03T05:44:43.316Z,9.46
2019-04-03T05:45:43.320Z,9.43
2019-04-03T05:46:43.338Z,9.48
2019-04-03T05:47:43.494Z,9.40
2019-04-03T05:48:43.356Z,9.40
2019-04-03T05:49:46.235Z,9.46
2019-04-03T05:50:43.416Z,9.43
2019-04-03T05:51:43.611Z,9.44
2019-04-03T05:52:43.577Z,9.47
2019-04-03T05:53:43.427Z,9.56
2019-04-03T05:54:44.480Z,9.65
2019-04-03T05:55:43.450Z,9.56
2019-04-03T05:56:43.465Z,9.58
2019-04-03T05:57:46.003Z,9.44
2019-04-03T05:58:54.700Z,9.43
2019-04-03T05:59:44.391Z,9.29
2019-04-03T06:00:43.623Z,9.22
2019-04-03T06:01:46.591Z,9.26
2019-04-03T06:02:43.538Z,9.22
2019-04-03T06:03:45.266Z,9.19
2019-04-03T06:04:43.593Z,9.18
2019-04-03T06:05:43.895Z,9.23
2019-04-03T06:06:45.904Z,9.28
2019-04-03T06:07:43.601Z,9.26
2019-04-03T06:08:43.625Z,9.28
2019-04-03T06:09:43.711Z,9.18
2019-04-03T06:10:43.651Z,9.18
2019-04-03T06:11:43.915Z,9.21
2019-04-03T06:12:45.402Z,9.16
2019-04-03T06:13:43.695Z,9.10
2019-04-03T06:14:43.701Z,9.16
2019-04-03T06:15:43.878Z,9.10
2019-04-03T06:16:44.010Z,9.10
2019-04-03T06:17:43.768Z,9.13
2019-04-03T06:18:43.760Z,9.16
2019-04-03T06:19:43.765Z,9.13
2019-04-03T06:20:44.026Z,9.14
2019-04-03T06:21:45.632Z,9.18
2019-04-03T06:22:43.806Z,9.14
2019-04-03T06:23:44.000Z,9.13
2019-04-03T06:24:44.697Z,9.11
2019-04-03T06:25:43.846Z,9.11
2019-04-03T06:26:45.004Z,9.18
2019-04-03T06:27:45.773Z,9.08
2019-04-03T06:28:46.641Z,9.14
2019-04-03T06:29:43.897Z,9.10
2019-04-03T06:30:43.917Z,9.11
2019-04-03T06:31:43.929Z,9.02
2019-04-03T06:32:43.935Z,9.03
2019-04-03T06:33:43.949Z,8.94
2019-04-03T06:34:44.346Z,8.95
2019-04-03T06:35:45.373Z,8.95
2019-04-03T06:36:43.987Z,8.99
2019-04-03T06:37:43.998Z,8.95
2019-04-03T06:38:44.013Z,9.00
2019-04-03T06:39:44.027Z,8.97
2019-04-03T06:40:44.048Z,8.88
2019-04-03T06:41:44.047Z,8.92
2019-04-03T06:42:44.944Z,8.87
2019-04-03T06:43:44.081Z,9.00
2019-04-03T06:44:44.096Z,8.97
2019-04-03T06:45:44.425Z,9.02
2019-04-03T06:46:44.114Z,8.99
2019-04-03T06:47:44.366Z,8.99
2019-04-03T06:48:44.149Z,9.02
2019-04-03T06:49:44.155Z,9.03
2019-04-03T06:50:44.174Z,8.92
2019-04-03T06:51:44.692Z,9.00
2019-04-03T06:52:44.197Z,8.88
2019-04-03T06:53:44.213Z,8.89
2019-04-03T06:54:45.108Z,8.95
2019-04-03T06:55:44.336Z,8.95
2019-04-03T06:56:44.251Z,8.92
2019-04-03T06:57:44.263Z,8.92
2019-04-03T06:58:44.845Z,8.91
2019-04-03T06:59:44.290Z,8.88
2019-04-03T07:00:45.280Z,8.97
2019-04-03T07:01:44.312Z,8.95
2019-04-03T07:02:44.326Z,9.03
2019-04-03T07:03:44.339Z,8.97
2019-04-03T07:04:44.380Z,9.00
2019-04-03T07:05:44.364Z,9.00
2019-04-03T07:06:45.236Z,9.19
2019-04-03T07:07:44.393Z,9.11
2019-04-03T07:08:44.416Z,9.16
2019-04-03T07:09:44.423Z,9.10
2019-04-03T07:10:54.654Z,9.14
2019-04-03T07:11:44.445Z,9.14
2019-04-03T07:12:44.456Z,9.14
2019-04-03T07:13:44.821Z,9.18
2019-04-03T07:14:44.481Z,9.14
2019-04-03T07:15:44.494Z,9.16
2019-04-03T07:16:44.507Z,9.29
2019-04-03T07:17:44.594Z,9.16
2019-04-03T07:18:44.772Z,9.18
2019-04-03T07:19:44.547Z,9.26
2019-04-03T07:20:44.557Z,9.29
2019-04-03T07:21:44.666Z,9.26
2019-04-03T07:22:44.592Z,9.26
2019-04-03T07:23:44.601Z,9.28
2019-04-03T07:24:44.860Z,9.29
2019-04-03T07:25:44.626Z,9.18
2019-04-03T07:26:44.635Z,9.13
2019-04-03T07:27:44.658Z,9.11
2019-04-03T07:28:44.666Z,9.16
2019-04-03T07:29:44.679Z,9.11
2019-04-03T07:30:44.713Z,9.06
2019-04-03T07:31:44.901Z,9.08
2019-04-03T07:32:44.742Z,9.11
2019-04-03T07:33:44.741Z,9.21
2019-04-03T07:34:44.778Z,9.21
2019-04-03T07:35:44.759Z,9.26
2019-04-03T07:36:45.560Z,9.26
2019-04-03T07:37:44.850Z,9.28
2019-04-03T07:38:44.800Z,9.29
2019-04-03T07:39:44.951Z,9.36
2019-04-03T07:40:44.826Z,9.46
2019-04-03T07:41:44.840Z,9.46
2019-04-03T07:42:44.845Z,9.54
2019-04-03T07:43:44.861Z,9.55
2019-04-03T07:44:44.891Z,9.62
2019-04-03T07:45:44.897Z,9.59
2019-04-03T07:46:44.903Z,9.56
2019-04-03T07:47:44.917Z,9.62
2019-04-03T07:48:44.929Z,9.64
2019-04-03T07:49:45.096Z,9.62
2019-04-03T07:50:45.201Z,9.55
2019-04-03T07:51:44.970Z,9.56
2019-04-03T07:52:47.781Z,9.61
2019-04-03T07:53:45.142Z,9.55
2019-04-03T07:54:45.019Z,9.51
2019-04-03T07:55:45.019Z,9.55
2019-04-03T07:56:45.341Z,9.56
2019-04-03T07:57:45.053Z,9.51
2019-04-03T07:58:45.065Z,9.47
2019-04-03T07:59:45.079Z,9.43
2019-04-03T08:00:45.337Z,9.26
2019-04-03T08:01:45.101Z,9.23
2019-04-03T08:02:48.279Z,9.13
2019-04-03T08:03:45.193Z,9.14
2019-04-03T08:04:45.246Z,9.22
2019-04-03T08:05:45.177Z,9.25
2019-04-03T08:06:45.346Z,9.23
2019-04-03T08:07:45.184Z,9.22
2019-04-03T08:08:45.215Z,9.36
2019-04-03T08:09:45.213Z,9.40
2019-04-03T08:10:45.246Z,9.37
2019-04-03T08:11:45.471Z,9.41
2019-04-03T08:12:45.318Z,9.41
2019-04-03T08:13:45.432Z,9.46
2019-04-03T08:14:45.371Z,9.32
2019-04-03T08:15:45.486Z,9.19
2019-04-03T08:16:47.494Z,9.14
2019-04-03T08:17:45.387Z,9.10
2019-04-03T08:18:45.325Z,8.95
2019-04-03T08:19:46.014Z,8.89
2019-04-03T08:20:45.354Z,8.91
2019-04-03T08:21:45.370Z,8.76
2019-04-03T08:22:45.380Z,8.89
2019-04-03T08:23:45.390Z,8.87
2019-04-03T08:24:45.408Z,8.97
2019-04-03T08:25:48.075Z,8.88
2019-04-03T08:26:45.434Z,8.99
2019-04-03T08:27:45.449Z,8.97
2019-04-03T08:28:45.780Z,9.08
2019-04-03T08:29:45.470Z,9.26
2019-04-03T08:30:45.739Z,9.43
2019-04-03T08:31:48.339Z,9.55
2019-04-03T08:32:47.775Z,9.55
2019-04-03T08:33:45.518Z,9.69
2019-04-03T08:34:45.540Z,9.79
2019-04-03T08:35:45.550Z,9.79
2019-04-03T08:36:45.565Z,9.87
2019-04-03T08:37:45.659Z,9.99
2019-04-03T08:38:45.775Z,10.01
2019-04-03T08:39:48.533Z,10.15
2019-04-03T08:40:45.816Z,10.09
2019-04-03T08:41:45.631Z,10.23
2019-04-03T08:42:45.653Z,10.25
2019-04-03T08:43:45.675Z,10.34
2019-04-03T08:44:45.671Z,10.34
2019-04-03T08:45:45.828Z,10.35
2019-04-03T08:46:45.694Z,10.44
2019-04-03T08:47:46.817Z,10.53
2019-04-03T08:48:45.724Z,10.56
2019-04-03T08:49:45.740Z,10.56
2019-04-03T08:50:45.762Z,10.64
2019-04-03T08:51:45.768Z,10.63
2019-04-03T08:52:45.792Z,10.56
2019-04-03T08:53:45.901Z,10.60
2019-04-03T08:54:46.018Z,10.68
2019-04-03T08:55:46.855Z,10.57
2019-04-03T08:56:48.334Z,10.25
2019-04-03T08:57:46.900Z,10.10
2019-04-03T08:58:46.037Z,9.94
2019-04-03T08:59:46.126Z,9.89
2019-04-03T09:00:45.900Z,9.97
2019-04-03T09:01:45.988Z,10.16
2019-04-03T09:02:45.922Z,10.09
2019-04-03T09:03:46.476Z,10.12
2019-04-03T09:04:48.073Z,10.15
2019-04-03T09:05:45.961Z,10.16
2019-04-03T09:06:46.536Z,10.13
2019-04-03T09:07:46.241Z,10.16
2019-04-03T09:08:46.007Z,10.20
2019-04-03T09:09:46.013Z,10.35
2019-04-03T09:10:46.030Z,10.38
2019-04-03T09:11:46.044Z,10.28
2019-04-03T09:12:46.060Z,10.30
2019-04-03T09:13:46.102Z,10.38
2019-04-03T09:14:46.286Z,10.37
2019-04-03T09:15:46.296Z,10.33
2019-04-03T09:16:46.113Z,10.30
2019-04-03T09:17:46.156Z,10.10
2019-04-03T09:18:46.383Z,9.99
2019-04-03T09:19:46.169Z,9.97
2019-04-03T09:20:46.461Z,10.13
2019-04-03T09:21:50.173Z,10.19
2019-04-03T09:22:46.209Z,10.28
2019-04-03T09:23:46.222Z,10.31
2019-04-03T09:24:46.231Z,10.33
2019-04-03T09:25:46.245Z,10.30
2019-04-03T09:26:46.317Z,10.30
2019-04-03T09:27:46.269Z,10.23
2019-04-03T09:28:46.290Z,10.22
2019-04-03T09:29:46.302Z,10.33
2019-04-03T09:30:47.919Z,10.38
2019-04-03T09:31:46.327Z,10.40
2019-04-03T09:32:46.437Z,10.40
2019-04-03T09:33:46.355Z,10.54
2019-04-03T09:34:46.386Z,10.53
2019-04-03T09:35:46.388Z,10.61
2019-04-03T09:36:46.454Z,10.74
2019-04-03T09:37:46.782Z,10.69
2019-04-03T09:38:46.419Z,10.84
2019-04-03T09:39:46.555Z,10.79
2019-04-03T09:40:48.332Z,10.82
2019-04-03T09:41:46.473Z,10.69
2019-04-03T09:42:46.479Z,10.79
2019-04-03T09:43:46.589Z,10.67
2019-04-03T09:44:46.518Z,10.76
2019-04-03T09:45:46.514Z,10.81
2019-04-03T09:46:46.541Z,10.76
2019-04-03T09:47:46.776Z,10.72
2019-04-03T09:48:46.846Z,10.69
2019-04-03T09:49:46.585Z,10.72
2019-04-03T09:50:47.284Z,10.78
2019-04-03T09:51:46.607Z,10.76
2019-04-03T09:52:49.617Z,10.81
2019-04-03T09:53:46.914Z,10.82
2019-04-03T09:54:46.652Z,10.82
2019-04-03T09:55:46.712Z,10.81
2019-04-03T09:56:58.832Z,10.86
2019-04-03T09:57:46.690Z,10.93
2019-04-03T09:58:47.072Z,11.00
2019-04-03T09:59:46.720Z,11.00
2019-04-03T10:00:46.728Z,11.07
2019-04-03T10:01:47.935Z,11.02
2019-04-03T10:02:46.766Z,11.08
2019-04-03T10:03:46.796Z,10.99
2019-04-03T10:04:46.800Z,10.96
2019-04-03T10:05:46.809Z,11.00
2019-04-03T10:06:46.818Z,11.12
2019-04-03T10:07:47.069Z,11.19
2019-04-03T10:08:47.117Z,11.00
2019-04-03T10:09:46.871Z,11.15
2019-04-03T10:10:47.250Z,11.30
2019-04-03T10:11:46.898Z,11.36
2019-04-03T10:12:48.046Z,11.27
2019-04-03T10:13:46.925Z,11.35
2019-04-03T10:14:47.180Z,11.18
2019-04-03T10:15:47.041Z,11.10
2019-04-03T10:16:46.966Z,10.87
2019-04-03T10:17:46.977Z,10.81
2019-04-03T10:18:47.199Z,10.56
2019-04-03T10:19:47.009Z,10.44
2019-04-03T10:20:48.666Z,10.31
2019-04-03T10:21:47.035Z,10.28
2019-04-03T10:22:47.325Z,10.40
2019-04-03T10:23:47.078Z,10.28
2019-04-03T10:24:47.081Z,10.22
2019-04-03T10:25:47.090Z,10.31
2019-04-03T10:26:47.103Z,10.31
2019-04-03T10:27:47.124Z,10.31
2019-04-03T10:28:48.235Z,10.46
2019-04-03T10:29:49.233Z,10.67
2019-04-03T10:30:48.507Z,10.76
2019-04-03T10:31:47.183Z,10.79
2019-04-03T10:32:47.200Z,10.81
2019-04-03T10:33:47.207Z,10.87
2019-04-03T10:34:47.230Z,10.89
2019-04-03T10:35:47.767Z,10.84
2019-04-03T10:36:47.250Z,10.84
2019-04-03T10:37:47.630Z,10.67
2019-04-03T10:38:49.094Z,10.69
2019-04-03T10:39:47.308Z,10.67
2019-04-03T10:40:47.719Z,10.79
2019-04-03T10:41:47.312Z,10.76
2019-04-03T10:42:47.328Z,10.76
2019-04-03T10:43:47.647Z,10.74
2019-04-03T10:44:47.554Z,10.84
2019-04-03T10:45:47.372Z,10.67
2019-04-03T10:46:47.946Z,10.71
2019-04-03T10:47:47.398Z,10.75
2019-04-03T10:48:47.419Z,10.84
2019-04-03T10:49:47.436Z,10.99
2019-04-03T10:50:47.448Z,11.04
2019-04-03T10:51:47.456Z,10.93
2019-04-03T10:52:48.983Z,10.78
2019-04-03T10:53:48.970Z,10.79
2019-04-03T10:54:47.501Z,10.84
2019-04-03T10:55:47.505Z,10.81
2019-04-03T10:56:47.716Z,10.79
2019-04-03T10:57:47.544Z,10.87
2019-04-03T10:58:50.111Z,10.99
2019-04-03T10:59:47.930Z,10.79
2019-04-03T11:00:48.044Z,10.78
2019-04-03T11:01:47.955Z,10.84
2019-04-03T11:02:47.610Z,10.81
2019-04-03T11:03:47.626Z,10.84
2019-04-03T11:04:47.632Z,10.89
2019-04-03T11:05:47.670Z,10.79
2019-04-03T11:06:47.679Z,10.69
2019-04-03T11:07:47.998Z,10.74
2019-04-03T11:08:47.763Z,10.78
2019-04-03T11:09:48.062Z,10.92
2019-04-03T11:10:47.724Z,10.92
2019-04-03T11:11:47.814Z,10.96
2019-04-03T11:12:47.748Z,10.89
2019-04-03T11:13:47.774Z,10.84
2019-04-03T11:14:47.782Z,10.84
2019-04-03T11:15:47.890Z,10.87
2019-04-03T11:16:47.905Z,10.84
2019-04-03T11:17:49.079Z,10.97
2019-04-03T11:18:57.592Z,10.87
2019-04-03T11:19:47.865Z,11.00
2019-04-03T11:20:47.907Z,11.00
2019-04-03T11:21:47.874Z,10.86
2019-04-03T11:22:48.290Z,10.87
2019-04-03T11:23:48.009Z,10.99
2019-04-03T11:24:47.920Z,11.07
2019-04-03T11:25:48.007Z,11.15
2019-04-03T11:26:50.825Z,11.14
2019-04-03T11:27:48.001Z,10.97
2019-04-03T11:28:48.326Z,11.11
2019-04-03T11:29:48.377Z,11.18
2019-04-03T11:30:49.542Z,11.23
2019-04-03T11:31:48.014Z,11.23
2019-04-03T11:32:48.250Z,11.33
2019-04-03T11:33:50.726Z,11.47
2019-04-03T11:34:49.337Z,11.57
2019-04-03T11:35:48.071Z,11.66
2019-04-03T11:36:48.255Z,11.75
2019-04-03T11:37:48.110Z,11.91
2019-04-03T11:38:48.112Z,11.95
2019-04-03T11:39:49.441Z,11.86
2019-04-03T11:40:50.337Z,11.69
2019-04-03T11:41:48.150Z,11.69
2019-04-03T11:42:48.177Z,11.69
2019-04-03T11:43:48.219Z,11.77
2019-04-03T11:44:48.275Z,11.80
2019-04-03T11:45:48.218Z,11.73
2019-04-03T11:46:48.232Z,11.54
2019-04-03T11:47:48.247Z,11.50
2019-04-03T11:48:49.150Z,11.57
2019-04-03T11:49:49.832Z,11.83
2019-04-03T11:50:48.278Z,11.68
2019-04-03T11:51:48.629Z,11.73
2019-04-03T11:52:51.163Z,11.72
2019-04-03T11:53:48.345Z,11.87
2019-04-03T11:54:48.342Z,11.99
2019-04-03T11:55:48.452Z,11.97
2019-04-03T11:56:48.369Z,12.00
2019-04-03T11:57:49.406Z,11.95
2019-04-03T11:58:49.967Z,11.77
2019-04-03T11:59:48.415Z,11.70
2019-04-03T12:00:48.449Z,11.47
2019-04-03T12:01:48.564Z,11.45
2019-04-03T12:02:48.465Z,11.57
2019-04-03T12:03:50.556Z,11.55
2019-04-03T12:04:48.685Z,11.45
2019-04-03T12:05:48.507Z,11.47
2019-04-03T12:06:49.792Z,11.47
2019-04-03T12:07:48.551Z,11.59
2019-04-03T12:08:48.557Z,11.70
2019-04-03T12:09:48.555Z,11.66
2019-04-03T12:10:48.635Z,11.55
2019-04-03T12:11:48.590Z,11.62
2019-04-03T12:12:48.608Z,11.52
2019-04-03T12:13:48.624Z,11.41
2019-04-03T12:14:49.632Z,11.40
2019-04-03T12:15:52.122Z,11.37
2019-04-03T12:16:48.670Z,11.26
2019-04-03T12:17:48.770Z,11.25
2019-04-03T12:18:48.720Z,11.26
2019-04-03T12:19:48.790Z,11.19
2019-04-03T12:20:49.949Z,11.15
2019-04-03T12:21:50.826Z,11.14
2019-04-03T12:22:48.771Z,11.05
2019-04-03T12:23:48.766Z,11.04
2019-04-03T12:24:48.776Z,11.19
2019-04-03T12:25:49.176Z,11.11
2019-04-03T12:26:51.270Z,11.15
2019-04-03T12:27:48.898Z,11.23
2019-04-03T12:28:50.031Z,11.32
2019-04-03T12:29:48.872Z,11.35
2019-04-03T12:30:49.210Z,11.48
2019-04-03T12:31:49.172Z,11.36
2019-04-03T12:32:50.151Z,11.35
2019-04-03T12:33:56.052Z,11.25
2019-04-03T12:34:48.919Z,11.18
2019-04-03T12:35:48.934Z,11.27
2019-04-03T12:36:49.022Z,11.25
2019-04-03T12:37:50.116Z,11.30
2019-04-03T12:38:48.978Z,11.37
2019-04-03T12:39:48.997Z,11.44
2019-04-03T12:40:49.095Z,11.48
2019-04-03T12:41:49.338Z,11.59
2019-04-03T12:42:49.109Z,11.73
2019-04-03T12:43:49.914Z,11.77
2019-04-03T12:44:49.065Z,11.72
2019-04-03T12:45:49.078Z,11.75
2019-04-03T12:46:49.085Z,11.65
2019-04-03T12:47:49.100Z,11.62
2019-04-03T12:48:50.977Z,11.62
2019-04-03T12:49:49.133Z,11.70
2019-04-03T12:50:49.147Z,11.60
2019-04-03T12:51:49.155Z,11.73
2019-04-03T12:52:49.529Z,11.68
2019-04-03T12:53:49.200Z,11.73
2019-04-03T12:54:51.239Z,11.75
2019-04-03T12:55:49.286Z,11.77
2019-04-03T12:56:49.328Z,11.83
2019-04-03T12:57:49.517Z,11.88
2019-04-03T12:58:49.694Z,11.94
2019-04-03T12:59:49.271Z,11.88
2019-04-03T13:00:49.371Z,11.88
2019-04-03T13:01:50.231Z,11.99
2019-04-03T13:02:51.291Z,12.00
2019-04-03T13:03:49.347Z,12.03
2019-04-03T13:04:49.399Z,12.02
2019-04-03T13:05:49.626Z,12.02